sensor_id;sensor_type;location;lat;lon;timestamp;pressure;altitude;pressure_sealevel;temperature;humidity
35649;BME280;21768;48.562;13.414;2023-05-22T00:02:15;97032.44;;;18.47;57.89
35649;BME280;21768;48.562;13.414;2023-05-22T00:04:42;97021.31;;;18.45;57.79
35649;BME280;21768;48.562;13.414;2023-05-22T00:07:08;97021.31;;;18.45;58.08
35649;BME280;21768;48.562;13.414;2023-05-22T00:09:33;97026.47;;;18.47;57.94
35649;BME280;21768;48.562;13.414;2023-05-22T00:11:59;97026.41;;;18.45;57.66
35649;BME280;21768;48.562;13.414;2023-05-22T00:14:24;97026.47;;;18.47;57.71
35649;BME280;21768;48.562;13.414;2023-05-22T00:16:49;97029.78;;;18.44;57.76
35649;BME280;21768;48.562;13.414;2023-05-22T00:19:15;97025.56;;;18.45;57.59
35649;BME280;21768;48.562;13.414;2023-05-22T00:21:41;97026.34;;;18.42;57.97
35649;BME280;21768;48.562;13.414;2023-05-22T00:24:08;97033.94;;;18.41;58.15
35649;BME280;21768;48.562;13.414;2023-05-22T00:26:33;97025.31;;;18.37;58.37
35649;BME280;21768;48.562;13.414;2023-05-22T00:28:59;97034.63;;;18.35;58.23
35649;BME280;21768;48.562;13.414;2023-05-22T00:31:24;97032.03;;;18.33;58.28
35649;BME280;21768;48.562;13.414;2023-05-22T00:33:50;97026.97;;;18.35;58.40
35649;BME280;21768;48.562;13.414;2023-05-22T00:36:15;97030.28;;;18.31;58.15
35649;BME280;21768;48.562;13.414;2023-05-22T00:38:40;97037.97;;;18.32;58.17
35649;BME280;21768;48.562;13.414;2023-05-22T00:41:06;97034.59;;;18.33;57.80
35649;BME280;21768;48.562;13.414;2023-05-22T00:43:32;97034.59;;;18.33;58.23
35649;BME280;21768;48.562;13.414;2023-05-22T00:45:58;97026.06;;;18.33;58.24
35649;BME280;21768;48.562;13.414;2023-05-22T00:48:24;97026.88;;;18.32;58.62
35649;BME280;21768;48.562;13.414;2023-05-22T00:50:50;97026.09;;;18.34;58.16
35649;BME280;21768;48.562;13.414;2023-05-22T00:53:19;97021.78;;;18.32;58.43
35649;BME280;21768;48.562;13.414;2023-05-22T00:55:45;97021.78;;;18.32;58.32
35649;BME280;21768;48.562;13.414;2023-05-22T00:58:14;97022.63;;;18.31;58.90
35649;BME280;21768;48.562;13.414;2023-05-22T01:00:40;97020.94;;;18.33;58.57
35649;BME280;21768;48.562;13.414;2023-05-22T01:03:07;97022.78;;;18.37;58.62
35649;BME280;21768;48.562;13.414;2023-05-22T01:05:34;97023.78;;;18.42;58.31
35649;BME280;21768;48.562;13.414;2023-05-22T01:08:00;97017.88;;;18.45;58.14
35649;BME280;21768;48.562;13.414;2023-05-22T01:10:27;97015.47;;;18.49;57.61
35649;BME280;21768;48.562;13.414;2023-05-22T01:18:10;97012.00;;;18.47;57.53
35649;BME280;21768;48.562;13.414;2023-05-22T01:21:05;97011.13;;;18.47;57.71
35649;BME280;21768;48.562;13.414;2023-05-22T01:23:52;97013.56;;;18.42;57.38
35649;BME280;21768;48.562;13.414;2023-05-22T01:32:08;97009.66;;;18.25;58.02
35649;BME280;21768;48.562;13.414;2023-05-22T01:34:36;97010.50;;;18.24;57.89
35649;BME280;21768;48.562;13.414;2023-05-22T01:37:03;97016.50;;;18.26;58.02
35649;BME280;21768;48.562;13.414;2023-05-22T01:39:29;97015.56;;;18.22;57.88
35649;BME280;21768;48.562;13.414;2023-05-22T01:41:56;97018.75;;;18.15;58.34
35649;BME280;21768;48.562;13.414;2023-05-22T01:44:21;97022.06;;;18.13;58.32
35649;BME280;21768;48.562;13.414;2023-05-22T01:46:47;97011.81;;;18.11;58.19
35649;BME280;21768;48.562;13.414;2023-05-22T01:49:13;97016.09;;;18.12;58.10
35649;BME280;21768;48.562;13.414;2023-05-22T01:51:51;97017.06;;;18.16;57.93
35649;BME280;21768;48.562;13.414;2023-05-22T01:54:32;97014.59;;;18.19;57.71
35649;BME280;21768;48.562;13.414;2023-05-22T01:57:04;97018.06;;;18.21;57.60
35649;BME280;21768;48.562;13.414;2023-05-22T01:59:35;97017.09;;;18.17;58.11
35649;BME280;21768;48.562;13.414;2023-05-22T02:02:06;97020.53;;;18.18;57.84
35649;BME280;21768;48.562;13.414;2023-05-22T02:04:37;97012.00;;;18.17;58.27
35649;BME280;21768;48.562;13.414;2023-05-22T02:07:05;97014.50;;;18.16;58.07
35649;BME280;21768;48.562;13.414;2023-05-22T02:09:32;97014.34;;;18.11;58.30
35649;BME280;21768;48.562;13.414;2023-05-22T02:11:59;97013.44;;;18.09;58.57
35649;BME280;21768;48.562;13.414;2023-05-22T02:14:25;97012.47;;;18.04;58.88
35649;BME280;21768;48.562;13.414;2023-05-22T02:16:51;97007.19;;;17.98;59.07
35649;BME280;21768;48.562;13.414;2023-05-22T02:19:17;97004.44;;;17.92;59.12
35649;BME280;21768;48.562;13.414;2023-05-22T02:21:42;96997.53;;;17.89;59.15
35649;BME280;21768;48.562;13.414;2023-05-22T02:24:08;96997.50;;;17.88;58.89
35649;BME280;21768;48.562;13.414;2023-05-22T02:26:34;96997.53;;;17.89;58.88
35649;BME280;21768;48.562;13.414;2023-05-22T02:29:00;96991.63;;;17.90;58.84
35649;BME280;21768;48.562;13.414;2023-05-22T02:31:25;96990.84;;;17.93;58.84
35649;BME280;21768;48.562;13.414;2023-05-22T02:33:51;96994.38;;;17.96;58.50
35649;BME280;21768;48.562;13.414;2023-05-22T02:36:16;96991.09;;;18.00;58.23
35649;BME280;21768;48.562;13.414;2023-05-22T02:38:41;96995.38;;;18.01;58.05
35649;BME280;21768;48.562;13.414;2023-05-22T02:41:07;96986.03;;;18.02;58.25
35649;BME280;21768;48.562;13.414;2023-05-22T02:43:32;96990.25;;;18.01;58.42
35649;BME280;21768;48.562;13.414;2023-05-22T02:45:58;96987.63;;;17.98;58.78
35649;BME280;21768;48.562;13.414;2023-05-22T02:48:23;96989.22;;;17.95;58.90
35649;BME280;21768;48.562;13.414;2023-05-22T02:50:49;96993.34;;;17.91;58.91
35649;BME280;21768;48.562;13.414;2023-05-22T02:53:14;96995.88;;;17.90;59.14
35649;BME280;21768;48.562;13.414;2023-05-22T02:55:41;96995.00;;;17.89;59.30
35649;BME280;21768;48.562;13.414;2023-05-22T02:58:08;96989.13;;;17.92;58.91
35649;BME280;21768;48.562;13.414;2023-05-22T03:00:39;96992.44;;;17.89;59.09
35649;BME280;21768;48.562;13.414;2023-05-22T03:03:04;96987.16;;;17.83;59.43
35649;BME280;21768;48.562;13.414;2023-05-22T03:05:31;96987.91;;;17.79;59.54
35649;BME280;21768;48.562;13.414;2023-05-22T03:07:57;96987.00;;;17.77;59.29
35649;BME280;21768;48.562;13.414;2023-05-22T03:10:23;96985.16;;;17.73;59.72
35649;BME280;21768;48.562;13.414;2023-05-22T03:12:49;96991.09;;;17.72;59.29
35649;BME280;21768;48.562;13.414;2023-05-22T03:15:16;96994.44;;;17.71;59.63
35649;BME280;21768;48.562;13.414;2023-05-22T03:17:42;96988.38;;;17.67;59.63
35649;BME280;21768;48.562;13.414;2023-05-22T03:20:07;96982.50;;;17.70;59.67
35649;BME280;21768;48.562;13.414;2023-05-22T03:22:33;96987.63;;;17.70;59.55
35649;BME280;21768;48.562;13.414;2023-05-22T03:24:58;96996.97;;;17.70;59.81
35649;BME280;21768;48.562;13.414;2023-05-22T03:27:23;96989.25;;;17.68;59.90
35649;BME280;21768;48.562;13.414;2023-05-22T03:29:49;96990.13;;;17.68;59.63
35649;BME280;21768;48.562;13.414;2023-05-22T03:32:14;96993.63;;;17.72;59.71
35649;BME280;21768;48.562;13.414;2023-05-22T03:34:40;96985.25;;;17.76;58.98
35649;BME280;21768;48.562;13.414;2023-05-22T03:37:05;96988.78;;;17.80;59.30
35649;BME280;21768;48.562;13.414;2023-05-22T03:39:30;96985.34;;;17.79;59.68
35649;BME280;21768;48.562;13.414;2023-05-22T03:41:56;96985.31;;;17.78;59.60
35649;BME280;21768;48.562;13.414;2023-05-22T03:44:21;96991.28;;;17.78;59.26
35649;BME280;21768;48.562;13.414;2023-05-22T03:46:46;96987.97;;;17.82;59.39
35649;BME280;21768;48.562;13.414;2023-05-22T03:49:12;96984.69;;;17.86;59.27
35649;BME280;21768;48.562;13.414;2023-05-22T03:51:37;96988.16;;;17.88;59.13
35649;BME280;21768;48.562;13.414;2023-05-22T03:54:03;96984.78;;;17.89;59.14
35649;BME280;21768;48.562;13.414;2023-05-22T03:56:28;96982.19;;;17.88;59.33
35649;BME280;21768;48.562;13.414;2023-05-22T03:58:53;96995.75;;;17.87;59.55
35649;BME280;21768;48.562;13.414;2023-05-22T04:01:19;96985.56;;;17.87;59.71
35649;BME280;21768;48.562;13.414;2023-05-22T04:03:44;96992.50;;;17.91;60.04
35649;BME280;21768;48.562;13.414;2023-05-22T04:06:10;96991.81;;;17.96;59.44
35649;BME280;21768;48.562;13.414;2023-05-22T04:08:37;96995.41;;;18.03;59.83
35649;BME280;21768;48.562;13.414;2023-05-22T04:11:03;96992.09;;;18.07;59.70
35649;BME280;21768;48.562;13.414;2023-05-22T04:13:30;96992.44;;;18.18;59.04
35649;BME280;21768;48.562;13.414;2023-05-22T04:15:55;96992.72;;;18.27;58.50
35649;BME280;21768;48.562;13.414;2023-05-22T04:18:21;96989.66;;;18.40;58.56
35649;BME280;21768;48.562;13.414;2023-05-22T04:20:46;96997.59;;;18.49;58.43
35649;BME280;21768;48.562;13.414;2023-05-22T04:23:12;97002.06;;;18.58;58.30
35649;BME280;21768;48.562;13.414;2023-05-22T04:25:37;97005.72;;;18.66;58.56
35649;BME280;21768;48.562;13.414;2023-05-22T04:28:03;97006.00;;;18.75;58.05
35649;BME280;21768;48.562;13.414;2023-05-22T04:30:32;97008.78;;;18.84;58.47
35649;BME280;21768;48.562;13.414;2023-05-22T04:33:03;97006.50;;;18.95;58.17
35649;BME280;21768;48.562;13.414;2023-05-22T04:35:30;97004.78;;;18.94;58.91
35649;BME280;21768;48.562;13.414;2023-05-22T04:37:56;97009.88;;;18.94;59.30
35649;BME280;21768;48.562;13.414;2023-05-22T04:40:21;97008.16;;;18.93;59.04
35649;BME280;21768;48.562;13.414;2023-05-22T04:42:46;97010.78;;;18.96;59.05
35649;BME280;21768;48.562;13.414;2023-05-22T04:45:12;97014.25;;;18.98;58.75
35649;BME280;21768;48.562;13.414;2023-05-22T04:47:38;97009.22;;;19.01;58.43
35649;BME280;21768;48.562;13.414;2023-05-22T04:50:06;97013.50;;;19.02;58.30
35649;BME280;21768;48.562;13.414;2023-05-22T04:52:31;97016.94;;;19.02;59.26
35649;BME280;21768;48.562;13.414;2023-05-22T04:54:56;97020.41;;;19.06;58.51
35649;BME280;21768;48.562;13.414;2023-05-22T04:57:22;97008.63;;;19.11;58.45
35649;BME280;21768;48.562;13.414;2023-05-22T04:59:50;97013.06;;;19.18;58.83
35649;BME280;21768;48.562;13.414;2023-05-22T05:02:16;97015.78;;;19.24;58.26
35649;BME280;21768;48.562;13.414;2023-05-22T05:04:41;97012.47;;;19.28;58.22
35649;BME280;21768;48.562;13.414;2023-05-22T05:07:07;97010.94;;;19.36;58.46
35649;BME280;21768;48.562;13.414;2023-05-22T05:09:33;97003.56;;;19.47;58.08
35649;BME280;21768;48.562;13.414;2023-05-22T05:11:58;97010.59;;;19.56;58.31
35649;BME280;21768;48.562;13.414;2023-05-22T05:14:24;97015.03;;;19.63;57.87
35649;BME280;21768;48.562;13.414;2023-05-22T05:16:49;97006.78;;;19.75;58.11
35649;BME280;21768;48.562;13.414;2023-05-22T05:19:19;97004.53;;;19.88;58.08
35649;BME280;21768;48.562;13.414;2023-05-22T05:21:46;97003.03;;;19.98;57.36
35649;BME280;21768;48.562;13.414;2023-05-22T05:24:11;97007.47;;;20.07;56.77
35649;BME280;21768;48.562;13.414;2023-05-22T05:26:37;97006.69;;;20.09;55.76
35649;BME280;21768;48.562;13.414;2023-05-22T05:29:02;97005.94;;;20.15;56.04
35649;BME280;21768;48.562;13.414;2023-05-22T05:31:28;97002.69;;;20.22;56.42
35649;BME280;21768;48.562;13.414;2023-05-22T05:33:53;97002.94;;;20.34;56.12
35649;BME280;21768;48.562;13.414;2023-05-22T05:36:22;97004.81;;;20.41;55.23
35649;BME280;21768;48.562;13.414;2023-05-22T05:38:48;97009.22;;;20.47;54.64
35649;BME280;21768;48.562;13.414;2023-05-22T05:41:13;97001.63;;;20.51;55.91
35649;BME280;21768;48.562;13.414;2023-05-22T05:43:38;97000.00;;;20.56;55.00
35649;BME280;21768;48.562;13.414;2023-05-22T05:46:04;97006.16;;;20.66;55.84
35649;BME280;21768;48.562;13.414;2023-05-22T05:48:30;97009.78;;;20.76;55.88
35649;BME280;21768;48.562;13.414;2023-05-22T05:50:55;96998.78;;;20.83;55.55
35649;BME280;21768;48.562;13.414;2023-05-22T05:53:20;96996.38;;;20.90;54.91
35649;BME280;21768;48.562;13.414;2023-05-22T05:55:46;96999.97;;;21.00;54.78
35649;BME280;21768;48.562;13.414;2023-05-22T05:58:12;97001.00;;;21.11;54.78
35649;BME280;21768;48.562;13.414;2023-05-22T06:00:37;96998.66;;;21.22;54.77
35649;BME280;21768;48.562;13.414;2023-05-22T06:03:03;96996.19;;;21.26;55.33
35649;BME280;21768;48.562;13.414;2023-05-22T06:05:28;97003.09;;;21.32;53.98
35649;BME280;21768;48.562;13.414;2023-05-22T06:07:53;96996.38;;;21.38;54.16
35649;BME280;21768;48.562;13.414;2023-05-22T06:10:22;97001.72;;;21.51;54.58
35649;BME280;21768;48.562;13.414;2023-05-22T06:12:47;96993.28;;;21.61;53.87
35649;BME280;21768;48.562;13.414;2023-05-22T06:15:13;96994.31;;;21.70;54.87
35649;BME280;21768;48.562;13.414;2023-05-22T06:17:38;96997.88;;;21.82;54.53
35649;BME280;21768;48.562;13.414;2023-05-22T06:20:04;96992.09;;;21.95;54.93
35649;BME280;21768;48.562;13.414;2023-05-22T06:22:31;96999.13;;;22.06;54.93
35649;BME280;21768;48.562;13.414;2023-05-22T06:24:56;96990.69;;;22.17;53.45
35649;BME280;21768;48.562;13.414;2023-05-22T06:27:23;96990.00;;;22.31;52.61
35649;BME280;21768;48.562;13.414;2023-05-22T06:29:49;96984.19;;;22.45;51.97
35649;BME280;21768;48.562;13.414;2023-05-22T06:32:15;96988.56;;;22.55;51.86
35649;BME280;21768;48.562;13.414;2023-05-22T06:34:41;96987.81;;;22.63;51.96
35649;BME280;21768;48.562;13.414;2023-05-22T06:37:08;96985.38;;;22.72;51.40
35649;BME280;21768;48.562;13.414;2023-05-22T06:39:34;96985.50;;;22.83;51.04
35649;BME280;21768;48.562;13.414;2023-05-22T06:41:59;96977.84;;;22.89;51.36
35649;BME280;21768;48.562;13.414;2023-05-22T06:44:25;96973.66;;;22.99;50.36
35649;BME280;21768;48.562;13.414;2023-05-22T06:46:51;96979.69;;;23.05;49.64
35649;BME280;21768;48.562;13.414;2023-05-22T06:49:17;96972.03;;;23.10;48.10
35649;BME280;21768;48.562;13.414;2023-05-22T06:51:43;96975.50;;;23.14;49.14
35649;BME280;21768;48.562;13.414;2023-05-22T06:54:09;96978.19;;;23.24;48.46
35649;BME280;21768;48.562;13.414;2023-05-22T06:56:36;96982.56;;;23.37;48.31
35649;BME280;21768;48.562;13.414;2023-05-22T06:59:02;96981.78;;;23.48;49.62
35649;BME280;21768;48.562;13.414;2023-05-22T07:01:27;96981.00;;;23.56;48.57
35649;BME280;21768;48.562;13.414;2023-05-22T07:03:56;96985.38;;;23.63;46.32
35649;BME280;21768;48.562;13.414;2023-05-22T07:06:22;96986.22;;;23.64;47.52
35649;BME280;21768;48.562;13.414;2023-05-22T07:08:49;96988.91;;;23.79;48.33
35649;BME280;21768;48.562;13.414;2023-05-22T07:11:14;96995.88;;;23.92;46.96
35649;BME280;21768;48.562;13.414;2023-05-22T07:13:40;97000.25;;;24.07;46.36
35649;BME280;21768;48.562;13.414;2023-05-22T07:16:06;96989.09;;;24.09;44.31
35649;BME280;21768;48.562;13.414;2023-05-22T07:18:31;96987.41;;;24.15;44.96
35649;BME280;21768;48.562;13.414;2023-05-22T07:20:57;96985.75;;;24.26;44.39
35649;BME280;21768;48.562;13.414;2023-05-22T07:23:22;96987.53;;;24.36;43.42
35649;BME280;21768;48.562;13.414;2023-05-22T07:25:48;96990.13;;;24.37;42.00
35649;BME280;21768;48.562;13.414;2023-05-22T07:28:13;96994.47;;;24.48;43.49
35649;BME280;21768;48.562;13.414;2023-05-22T07:30:39;96989.31;;;24.55;42.65
35649;BME280;21768;48.562;13.414;2023-05-22T07:33:04;96987.59;;;24.57;41.43
35649;BME280;21768;48.562;13.414;2023-05-22T07:35:30;96986.75;;;24.57;41.03
35649;BME280;21768;48.562;13.414;2023-05-22T07:37:56;96989.34;;;24.63;40.87
35649;BME280;21768;48.562;13.414;2023-05-22T07:40:21;96992.81;;;24.68;39.86
35649;BME280;21768;48.562;13.414;2023-05-22T07:42:46;96993.69;;;24.74;41.71
35649;BME280;21768;48.562;13.414;2023-05-22T07:45:12;96997.16;;;24.89;39.97
35649;BME280;21768;48.562;13.414;2023-05-22T07:47:37;96994.63;;;25.07;41.48
35649;BME280;21768;48.562;13.414;2023-05-22T07:50:03;96994.66;;;25.15;39.55
35649;BME280;21768;48.562;13.414;2023-05-22T07:52:29;96997.25;;;25.15;38.57
35649;BME280;21768;48.562;13.414;2023-05-22T07:54:56;96997.22;;;25.12;38.91
35649;BME280;21768;48.562;13.414;2023-05-22T07:57:21;96990.34;;;25.12;39.71
35649;BME280;21768;48.562;13.414;2023-05-22T07:59:47;96989.50;;;25.21;38.65
35649;BME280;21768;48.562;13.414;2023-05-22T08:02:13;97001.56;;;25.20;39.08
35649;BME280;21768;48.562;13.414;2023-05-22T08:04:39;96996.38;;;25.20;38.17
35649;BME280;21768;48.562;13.414;2023-05-22T08:07:04;96991.22;;;25.35;38.79
35649;BME280;21768;48.562;13.414;2023-05-22T08:09:30;96996.38;;;25.51;37.90
35649;BME280;21768;48.562;13.414;2023-05-22T08:11:55;96992.06;;;25.56;37.47
35649;BME280;21768;48.562;13.414;2023-05-22T08:14:21;96987.75;;;25.52;38.05
35649;BME280;21768;48.562;13.414;2023-05-22T08:16:47;96987.81;;;25.65;38.02
35649;BME280;21768;48.562;13.414;2023-05-22T08:19:12;96989.53;;;25.72;36.61
35649;BME280;21768;48.562;13.414;2023-05-22T08:21:38;96991.22;;;25.81;36.58
35649;BME280;21768;48.562;13.414;2023-05-22T08:24:05;96998.97;;;25.80;37.54
35649;BME280;21768;48.562;13.414;2023-05-22T08:26:30;96994.66;;;25.83;38.88
35649;BME280;21768;48.562;13.414;2023-05-22T08:28:58;97000.69;;;25.97;39.16
35649;BME280;21768;48.562;13.414;2023-05-22T08:31:23;96996.34;;;26.05;36.78
35649;BME280;21768;48.562;13.414;2023-05-22T08:33:49;96993.69;;;26.25;35.65
35649;BME280;21768;48.562;13.414;2023-05-22T08:36:14;96994.56;;;26.35;35.98
35649;BME280;21768;48.562;13.414;2023-05-22T08:38:40;96992.81;;;26.29;34.21
35649;BME280;21768;48.562;13.414;2023-05-22T08:41:07;96997.13;;;26.44;33.95
35649;BME280;21768;48.562;13.414;2023-05-22T08:43:32;96993.66;;;26.47;35.06
35649;BME280;21768;48.562;13.414;2023-05-22T08:46:04;96989.09;;;26.99;34.61
35649;BME280;21768;48.562;13.414;2023-05-22T08:48:32;96989.25;;;27.91;32.91
35649;BME280;21768;48.562;13.414;2023-05-22T08:51:02;96982.09;;;28.86;31.61
35649;BME280;21768;48.562;13.414;2023-05-22T08:53:33;96984.75;;;29.41;30.76
35649;BME280;21768;48.562;13.414;2023-05-22T08:56:01;96977.56;;;29.57;30.33
35649;BME280;21768;48.562;13.414;2023-05-22T08:58:26;96979.38;;;30.03;29.52
35649;BME280;21768;48.562;13.414;2023-05-22T09:00:52;96987.41;;;29.89;29.80
35649;BME280;21768;48.562;13.414;2023-05-22T09:03:18;96975.09;;;29.48;30.44
35649;BME280;21768;48.562;13.414;2023-05-22T09:05:45;96974.50;;;29.29;29.26
35649;BME280;21768;48.562;13.414;2023-05-22T09:08:11;96977.41;;;29.11;29.61
35649;BME280;21768;48.562;13.414;2023-05-22T09:10:36;96979.50;;;28.86;31.15
35649;BME280;21768;48.562;13.414;2023-05-22T09:13:06;96979.75;;;28.65;29.00
35649;BME280;21768;48.562;13.414;2023-05-22T09:15:34;96978.28;;;28.46;30.15
35649;BME280;21768;48.562;13.414;2023-05-22T09:18:01;96987.72;;;28.51;28.91
35649;BME280;21768;48.562;13.414;2023-05-22T09:20:27;96979.28;;;29.01;30.32
35649;BME280;21768;48.562;13.414;2023-05-22T09:22:52;96980.00;;;30.16;27.86
35649;BME280;21768;48.562;13.414;2023-05-22T09:25:19;96971.59;;;31.25;25.98
35649;BME280;21768;48.562;13.414;2023-05-22T09:27:45;96981.50;;;31.83;24.59
35649;BME280;21768;48.562;13.414;2023-05-22T09:30:15;96987.31;;;31.93;24.91
35649;BME280;21768;48.562;13.414;2023-05-22T09:32:41;96986.22;;;32.01;24.46
35649;BME280;21768;48.562;13.414;2023-05-22T09:35:07;96983.75;;;32.29;24.41
35649;BME280;21768;48.562;13.414;2023-05-22T09:37:33;96983.63;;;32.34;23.16
35649;BME280;21768;48.562;13.414;2023-05-22T09:40:06;96980.28;;;32.29;23.75
35649;BME280;21768;48.562;13.414;2023-05-22T09:42:33;96988.28;;;32.54;22.22
35649;BME280;21768;48.562;13.414;2023-05-22T09:45:06;96991.66;;;33.16;22.52
35649;BME280;21768;48.562;13.414;2023-05-22T09:47:32;96996.31;;;34.13;21.38
35649;BME280;21768;48.562;13.414;2023-05-22T09:50:04;96978.25;;;34.77;21.22
35649;BME280;21768;48.562;13.414;2023-05-22T09:52:35;96985.34;;;35.42;21.21
35649;BME280;21768;48.562;13.414;2023-05-22T09:55:07;96982.00;;;36.22;20.54
35649;BME280;21768;48.562;13.414;2023-05-22T09:57:43;96977.94;;;37.30;19.16
35649;BME280;21768;48.562;13.414;2023-05-22T10:00:13;96984.75;;;37.34;17.81
35649;BME280;21768;48.562;13.414;2023-05-22T10:02:44;96985.16;;;35.89;18.19
35649;BME280;21768;48.562;13.414;2023-05-22T10:05:13;96987.38;;;34.67;19.75
35649;BME280;21768;48.562;13.414;2023-05-22T10:07:55;96980.94;;;34.28;21.16
35649;BME280;21768;48.562;13.414;2023-05-22T10:10:23;96983.41;;;34.34;21.38
35649;BME280;21768;48.562;13.414;2023-05-22T10:12:56;96979.13;;;34.31;21.12
35649;BME280;21768;48.562;13.414;2023-05-22T10:15:22;96966.97;;;34.75;21.70
35649;BME280;21768;48.562;13.414;2023-05-22T10:17:48;96973.41;;;35.35;19.51
35649;BME280;21768;48.562;13.414;2023-05-22T10:20:17;96966.28;;;35.81;19.54
35649;BME280;21768;48.562;13.414;2023-05-22T10:22:45;96965.63;;;37.31;18.33
35649;BME280;21768;48.562;13.414;2023-05-22T10:25:11;96973.56;;;38.67;16.92
35649;BME280;21768;48.562;13.414;2023-05-22T10:27:38;96967.31;;;40.37;16.20
35649;BME280;21768;48.562;13.414;2023-05-22T10:30:40;96977.09;;;41.74;15.25
35649;BME280;21768;48.562;13.414;2023-05-22T10:33:43;96976.66;;;42.20;14.91
35649;BME280;21768;48.562;13.414;2023-05-22T10:36:36;96976.13;;;42.15;14.13
35649;BME280;21768;48.562;13.414;2023-05-22T10:41:50;96974.47;;;40.21;14.63
35649;BME280;21768;48.562;13.414;2023-05-22T10:44:16;96965.97;;;39.10;15.86
35649;BME280;21768;48.562;13.414;2023-05-22T10:46:47;96967.16;;;40.83;14.95
35649;BME280;21768;48.562;13.414;2023-05-22T10:49:21;96973.97;;;42.70;13.65
35649;BME280;21768;48.562;13.414;2023-05-22T10:51:56;96962.69;;;42.92;13.34
35649;BME280;21768;48.562;13.414;2023-05-22T10:55:00;96963.69;;;44.89;13.16
35649;BME280;21768;48.562;13.414;2023-05-22T10:57:32;96957.09;;;46.62;11.63
35649;BME280;21768;48.562;13.414;2023-05-22T11:00:10;96963.69;;;46.58;11.02
35649;BME280;21768;48.562;13.414;2023-05-22T11:02:40;96950.94;;;43.68;13.00
35649;BME280;21768;48.562;13.414;2023-05-22T11:07:47;96947.19;;;39.15;15.77
35649;BME280;21768;48.562;13.414;2023-05-22T11:10:12;96943.03;;;37.61;17.64
35649;BME280;21768;48.562;13.414;2023-05-22T11:12:38;96939.47;;;36.34;17.23
35649;BME280;21768;48.562;13.414;2023-05-22T11:15:09;96930.44;;;35.38;19.23
35649;BME280;21768;48.562;13.414;2023-05-22T11:17:47;96930.19;;;34.77;19.66
35649;BME280;21768;48.562;13.414;2023-05-22T11:20:23;96929.06;;;34.39;20.53
35649;BME280;21768;48.562;13.414;2023-05-22T11:23:05;96927.84;;;33.99;21.17
35649;BME280;21768;48.562;13.414;2023-05-22T11:25:35;96923.53;;;33.72;21.98
35649;BME280;21768;48.562;13.414;2023-05-22T11:28:03;96931.31;;;33.49;21.86
35649;BME280;21768;48.562;13.414;2023-05-22T11:30:30;96920.81;;;33.22;21.73
35649;BME280;21768;48.562;13.414;2023-05-22T11:32:59;96917.28;;;32.97;22.01
35649;BME280;21768;48.562;13.414;2023-05-22T11:35:26;96927.88;;;32.64;21.82
35649;BME280;21768;48.562;13.414;2023-05-22T11:37:53;96924.00;;;32.17;22.73
35649;BME280;21768;48.562;13.414;2023-05-22T11:40:20;96915.56;;;32.07;22.79
35649;BME280;21768;48.562;13.414;2023-05-22T11:42:46;96919.44;;;31.93;23.01
35649;BME280;21768;48.562;13.414;2023-05-22T11:45:11;96912.34;;;31.67;22.99
35649;BME280;21768;48.562;13.414;2023-05-22T11:47:37;96901.69;;;31.40;24.27
35649;BME280;21768;48.562;13.414;2023-05-22T11:50:04;96903.25;;;31.46;24.45
35649;BME280;21768;48.562;13.414;2023-05-22T11:52:33;96907.88;;;31.36;23.04
35649;BME280;21768;48.562;13.414;2023-05-22T11:54:59;96896.91;;;31.22;23.33
35649;BME280;21768;48.562;13.414;2023-05-22T11:57:25;96900.66;;;31.12;23.60
35649;BME280;21768;48.562;13.414;2023-05-22T11:59:51;96900.16;;;30.95;24.02
35649;BME280;21768;48.562;13.414;2023-05-22T12:02:17;96898.16;;;31.06;24.65
35649;BME280;21768;48.562;13.414;2023-05-22T12:04:44;96895.25;;;31.20;24.35
35649;BME280;21768;48.562;13.414;2023-05-22T12:07:09;96900.47;;;31.20;23.42
35649;BME280;21768;48.562;13.414;2023-05-22T12:09:38;96900.59;;;31.15;23.63
35649;BME280;21768;48.562;13.414;2023-05-22T12:12:04;96897.72;;;30.89;23.74
35649;BME280;21768;48.562;13.414;2023-05-22T12:14:30;96893.47;;;30.85;24.48
35649;BME280;21768;48.562;13.414;2023-05-22T12:16:59;96894.28;;;30.87;24.60
35649;BME280;21768;48.562;13.414;2023-05-22T12:19:25;96901.00;;;30.95;24.55
35649;BME280;21768;48.562;13.414;2023-05-22T12:21:52;96894.66;;;31.07;24.74
35649;BME280;21768;48.562;13.414;2023-05-22T12:24:17;96888.09;;;30.92;24.00
35649;BME280;21768;48.562;13.414;2023-05-22T12:26:49;96896.00;;;30.88;24.49
35649;BME280;21768;48.562;13.414;2023-05-22T12:29:16;96898.25;;;31.03;24.76
35649;BME280;21768;48.562;13.414;2023-05-22T12:31:43;96895.78;;;30.97;24.24
35649;BME280;21768;48.562;13.414;2023-05-22T12:34:10;96889.13;;;30.85;24.56
35649;BME280;21768;48.562;13.414;2023-05-22T12:36:41;96884.97;;;30.76;24.32
35649;BME280;21768;48.562;13.414;2023-05-22T12:39:07;96880.53;;;30.80;23.89
35649;BME280;21768;48.562;13.414;2023-05-22T12:41:34;96883.63;;;30.96;24.29
35649;BME280;21768;48.562;13.414;2023-05-22T12:43:59;96885.00;;;31.14;24.05
35649;BME280;21768;48.562;13.414;2023-05-22T12:46:26;96883.91;;;30.85;23.91
35649;BME280;21768;48.562;13.414;2023-05-22T12:48:51;96871.44;;;30.61;24.15
35649;BME280;21768;48.562;13.414;2023-05-22T12:51:17;96876.69;;;30.59;24.84
35649;BME280;21768;48.562;13.414;2023-05-22T12:53:42;96873.06;;;30.66;24.76
35649;BME280;21768;48.562;13.414;2023-05-22T12:56:07;96874.47;;;30.79;25.52
35649;BME280;21768;48.562;13.414;2023-05-22T12:58:33;96888.84;;;30.96;24.67
35649;BME280;21768;48.562;13.414;2023-05-22T13:00:58;96881.13;;;30.93;23.87
35649;BME280;21768;48.562;13.414;2023-05-22T13:03:23;96871.91;;;30.78;23.36
35649;BME280;21768;48.562;13.414;2023-05-22T13:05:49;96870.31;;;30.71;24.02
35649;BME280;21768;48.562;13.414;2023-05-22T13:08:14;96875.47;;;30.74;24.03